Nathalie — OJLP — position and weather

sailwx.info

Track history (hours):
 
Tides and Currents Weather Stations Pressure Air Temp Water Temp Dewpoint Dewpoint Depression Visibility Wind Speed Wind Dir Waves Ship Positions

Nathalie

Last reported at 2017-Jan-19 19:30 UTC. Time now 2017-Jan-19 21:29 UTC.
Position N 60°01' E 023°56'.

Length 64 m; draft 2.1 m.

Type: Cargo ship. MMSI: 230987660.

Date/timePositionNaut miles runAvg speedWind from/ knotsBaromVisibWave heightAir tempDewpointWater temp
2017-Jan-19 19:30N 60°01' E 023°56'38 0.8
2017-Jan-17 19:31N 59°31' E 024°43'4 3.9
2017-Jan-17 18:28N 59°27' E 024°40'0 0.0
2017-Jan-17 17:28N 59°27' E 024°40'0 0.0
2017-Jan-17 13:21N 59°27' E 024°40'25 8.4
2017-Jan-17 10:21N 59°48' E 024°12'7 8.8
2017-Jan-17 09:33N 59°55' E 024°11'9 9.1
2017-Jan-17 08:33N 60°01' E 023°56'1 0.7
2017-Jan-17 07:32N 60°01' E 023°55'0 0.0
2017-Jan-17 06:29N 60°01' E 023°55'0 0.0
2017-Jan-17 05:32N 60°01' E 023°55'0 0.0
2017-Jan-17 04:32N 60°01' E 023°55'0 0.0
2017-Jan-17 03:32N 60°01' E 023°55'0 0.0
2017-Jan-17 02:32N 60°01' E 023°55'0 0.0
2017-Jan-17 01:32N 60°01' E 023°55'0 0.0
2017-Jan-17 00:32N 60°01' E 023°55'0 0.0
2017-Jan-16 23:32N 60°01' E 023°55'0 0.0
2017-Jan-16 22:32N 60°01' E 023°55'0 0.0
2017-Jan-16 21:32N 60°01' E 023°55'0 0.0
2017-Jan-16 20:32N 60°01' E 023°55'1 0.7
2017-Jan-16 19:33N 60°01' E 023°56'10 9.8
2017-Jan-16 18:31N 59°57' E 024°15'  
2017-Jan-14 11:15N 59°40' E 023°57'710.1
2017-Jan-14 10:33N 59°41' E 023°43'1010.1
2017-Jan-14 09:33N 59°43' E 023°23'12 9.7
2017-Jan-14 08:20N 59°46' E 023°00'109 3.1
2017-Jan-12 20:29N 60°02' E 019°25'9 9.0
2017-Jan-12 19:28N 59°53' E 019°21'8 9.2
2017-Jan-12 18:33N 59°45' E 019°16'8 8.2
2017-Jan-12 17:33N 59°38' E 019°09'8 8.5
2017-Jan-12 16:33N 59°30' E 019°04'76 8.4
2017-Jan-12 07:29N 58°37' E 017°17'6 1.0
2017-Jan-12 01:18N 58°40' E 017°07'0 0.0
2017-Jan-12 00:24N 58°40' E 017°07'0 0.0
2017-Jan-11 12:18N 58°40' E 017°07'0 0.0
2017-Jan-11 11:24N 58°40' E 017°07'0 0.0
2017-Jan-11 10:12N 58°40' E 017°07'0 0.0
2017-Jan-11 09:33N 58°40' E 017°07'0 0.0
2017-Jan-11 08:24N 58°40' E 017°07'0 0.0
2017-Jan-11 07:33N 58°40' E 017°07'0 0.0
2017-Jan-11 05:18N 58°40' E 017°07'0 0.0
2017-Jan-11 04:27N 58°40' E 017°07'0 0.0
2017-Jan-11 03:33N 58°40' E 017°07'0 0.0
2017-Jan-11 02:33N 58°40' E 017°07'0 0.0
2017-Jan-11 01:33N 58°40' E 017°07'0 0.0
2017-Jan-11 00:12N 58°40' E 017°07'0 0.0
2017-Jan-10 23:33N 58°40' E 017°07'0 0.0
2017-Jan-10 22:23N 58°40' E 017°07'0 0.0
2017-Jan-10 21:05N 58°40' E 017°07'0 0.0
2017-Jan-10 19:23N 58°40' E 017°07'0 0.0
2017-Jan-10 18:29N 58°40' E 017°07'0 0.0
2017-Jan-10 15:25N 58°40' E 017°07'7 7.5
2017-Jan-10 14:33N 58°37' E 017°18'52 6.5
2017-Jan-10 06:28N 59°11' E 018°35'8 9.3
2017-Jan-10 05:33N 59°18' E 018°45'9 9.6
2017-Jan-10 04:34N 59°25' E 018°56'9 9.5
2017-Jan-10 03:33N 59°33' E 019°07'10 9.8
2017-Jan-10 02:34N 59°43' E 019°11'9 9.2
2017-Jan-10 01:33N 59°48' E 019°26'  
Track history (hours):
 
Tides and Currents Weather Stations Pressure Air Temp Water Temp Dewpoint Dewpoint Depression Visibility Wind Speed Wind Dir Waves Ship Positions

Nathalie

Last reported at 2017-Jan-19 19:30 UTC. Time now 2017-Jan-19 21:29 UTC.
Position N 60°01' E 023°56'.

Length 64 m; draft 2.1 m.

Type: Cargo ship. MMSI: 230987660.

Date/timePositionNaut miles runAvg speedWind from/ knotsBaromVisibWave heightAir tempDewpointWater temp
2017-Jan-19 19:30N 60°01' E 023°56'38 0.8
2017-Jan-17 19:31N 59°31' E 024°43'4 3.9
2017-Jan-17 18:28N 59°27' E 024°40'0 0.0
2017-Jan-17 17:28N 59°27' E 024°40'0 0.0
2017-Jan-17 13:21N 59°27' E 024°40'25 8.4
2017-Jan-17 10:21N 59°48' E 024°12'7 8.8
2017-Jan-17 09:33N 59°55' E 024°11'9 9.1
2017-Jan-17 08:33N 60°01' E 023°56'1 0.7
2017-Jan-17 07:32N 60°01' E 023°55'0 0.0
2017-Jan-17 06:29N 60°01' E 023°55'0 0.0
2017-Jan-17 05:32N 60°01' E 023°55'0 0.0
2017-Jan-17 04:32N 60°01' E 023°55'0 0.0
2017-Jan-17 03:32N 60°01' E 023°55'0 0.0
2017-Jan-17 02:32N 60°01' E 023°55'0 0.0
2017-Jan-17 01:32N 60°01' E 023°55'0 0.0
2017-Jan-17 00:32N 60°01' E 023°55'0 0.0
2017-Jan-16 23:32N 60°01' E 023°55'0 0.0
2017-Jan-16 22:32N 60°01' E 023°55'0 0.0
2017-Jan-16 21:32N 60°01' E 023°55'0 0.0
2017-Jan-16 20:32N 60°01' E 023°55'1 0.7
2017-Jan-16 19:33N 60°01' E 023°56'10 9.8
2017-Jan-16 18:31N 59°57' E 024°15'  
2017-Jan-14 11:15N 59°40' E 023°57'710.1
2017-Jan-14 10:33N 59°41' E 023°43'1010.1
2017-Jan-14 09:33N 59°43' E 023°23'12 9.7
2017-Jan-14 08:20N 59°46' E 023°00'109 3.1
2017-Jan-12 20:29N 60°02' E 019°25'9 9.0
2017-Jan-12 19:28N 59°53' E 019°21'8 9.2
2017-Jan-12 18:33N 59°45' E 019°16'8 8.2
2017-Jan-12 17:33N 59°38' E 019°09'8 8.5
2017-Jan-12 16:33N 59°30' E 019°04'76 8.4
2017-Jan-12 07:29N 58°37' E 017°17'6 1.0
2017-Jan-12 01:18N 58°40' E 017°07'0 0.0
2017-Jan-12 00:24N 58°40' E 017°07'0 0.0
2017-Jan-11 12:18N 58°40' E 017°07'0 0.0
2017-Jan-11 11:24N 58°40' E 017°07'0 0.0
2017-Jan-11 10:12N 58°40' E 017°07'0 0.0
2017-Jan-11 09:33N 58°40' E 017°07'0 0.0
2017-Jan-11 08:24N 58°40' E 017°07'0 0.0
2017-Jan-11 07:33N 58°40' E 017°07'0 0.0
2017-Jan-11 05:18N 58°40' E 017°07'0 0.0
2017-Jan-11 04:27N 58°40' E 017°07'0 0.0
2017-Jan-11 03:33N 58°40' E 017°07'0 0.0
2017-Jan-11 02:33N 58°40' E 017°07'0 0.0
2017-Jan-11 01:33N 58°40' E 017°07'0 0.0
2017-Jan-11 00:12N 58°40' E 017°07'0 0.0
2017-Jan-10 23:33N 58°40' E 017°07'0 0.0
2017-Jan-10 22:23N 58°40' E 017°07'0 0.0
2017-Jan-10 21:05N 58°40' E 017°07'0 0.0
2017-Jan-10 19:23N 58°40' E 017°07'0 0.0
2017-Jan-10 18:29N 58°40' E 017°07'0 0.0
2017-Jan-10 15:25N 58°40' E 017°07'7 7.5
2017-Jan-10 14:33N 58°37' E 017°18'52 6.5
2017-Jan-10 06:28N 59°11' E 018°35'8 9.3
2017-Jan-10 05:33N 59°18' E 018°45'9 9.6
2017-Jan-10 04:34N 59°25' E 018°56'9 9.5
2017-Jan-10 03:33N 59°33' E 019°07'10 9.8
2017-Jan-10 02:34N 59°43' E 019°11'9 9.2
2017-Jan-10 01:33N 59°48' E 019°26'  

Dump ship's entire track history